sensor_id;sensor_type;location;lat;lon;timestamp;temperature;humidity
16032;DHT22;8120;48.308;8.914;2023-04-03T00:01:00;1.20;91.90
16032;DHT22;8120;48.308;8.914;2023-04-03T00:03:28;1.20;91.80
16032;DHT22;8120;48.308;8.914;2023-04-03T00:05:56;1.20;91.80
16032;DHT22;8120;48.308;8.914;2023-04-03T00:08:24;1.20;91.70
16032;DHT22;8120;48.308;8.914;2023-04-03T00:10:52;1.20;91.70
16032;DHT22;8120;48.308;8.914;2023-04-03T00:13:19;1.20;92.10
16032;DHT22;8120;48.308;8.914;2023-04-03T00:15:49;1.20;92.40
16032;DHT22;8120;48.308;8.914;2023-04-03T00:18:17;1.10;92.50
16032;DHT22;8120;48.308;8.914;2023-04-03T00:20:45;1.20;92.70
16032;DHT22;8120;48.308;8.914;2023-04-03T00:23:12;1.10;93.00
16032;DHT22;8120;48.308;8.914;2023-04-03T00:25:40;1.10;93.80
16032;DHT22;8120;48.308;8.914;2023-04-03T00:28:09;1.10;93.90
16032;DHT22;8120;48.308;8.914;2023-04-03T00:30:36;1.10;93.30
16032;DHT22;8120;48.308;8.914;2023-04-03T00:33:06;1.10;94.00
16032;DHT22;8120;48.308;8.914;2023-04-03T00:35:34;1.20;93.20
16032;DHT22;8120;48.308;8.914;2023-04-03T00:38:02;1.10;92.00
16032;DHT22;8120;48.308;8.914;2023-04-03T00:40:39;1.10;90.90
16032;DHT22;8120;48.308;8.914;2023-04-03T00:43:12;1.10;90.70
16032;DHT22;8120;48.308;8.914;2023-04-03T00:45:42;1.10;90.40
16032;DHT22;8120;48.308;8.914;2023-04-03T00:48:16;1.10;89.90
16032;DHT22;8120;48.308;8.914;2023-04-03T00:50:45;1.10;90.10
16032;DHT22;8120;48.308;8.914;2023-04-03T00:53:17;1.10;89.70
16032;DHT22;8120;48.308;8.914;2023-04-03T00:55:47;1.10;89.10
16032;DHT22;8120;48.308;8.914;2023-04-03T00:58:18;1.00;89.10
16032;DHT22;8120;48.308;8.914;2023-04-03T01:00:52;1.00;88.90
16032;DHT22;8120;48.308;8.914;2023-04-03T01:03:25;1.00;89.50
16032;DHT22;8120;48.308;8.914;2023-04-03T01:05:53;1.00;89.40
16032;DHT22;8120;48.308;8.914;2023-04-03T01:08:21;1.00;89.60
16032;DHT22;8120;48.308;8.914;2023-04-03T01:10:49;1.00;90.10
16032;DHT22;8120;48.308;8.914;2023-04-03T01:13:23;1.00;89.80
16032;DHT22;8120;48.308;8.914;2023-04-03T01:15:52;1.10;89.90
16032;DHT22;8120;48.308;8.914;2023-04-03T01:18:21;1.10;89.10
16032;DHT22;8120;48.308;8.914;2023-04-03T01:24:16;1.00;89.80
16032;DHT22;8120;48.308;8.914;2023-04-03T01:26:48;1.10;89.80
16032;DHT22;8120;48.308;8.914;2023-04-03T01:29:17;1.10;90.00
16032;DHT22;8120;48.308;8.914;2023-04-03T01:31:49;1.00;89.50
16032;DHT22;8120;48.308;8.914;2023-04-03T01:34:17;1.00;89.70
16032;DHT22;8120;48.308;8.914;2023-04-03T01:36:45;1.00;89.10
16032;DHT22;8120;48.308;8.914;2023-04-03T01:39:13;0.90;88.80
16032;DHT22;8120;48.308;8.914;2023-04-03T01:41:41;1.00;89.10
16032;DHT22;8120;48.308;8.914;2023-04-03T01:44:09;1.00;89.10
16032;DHT22;8120;48.308;8.914;2023-04-03T01:46:37;1.00;89.70
16032;DHT22;8120;48.308;8.914;2023-04-03T01:49:06;1.00;89.20
16032;DHT22;8120;48.308;8.914;2023-04-03T01:51:34;0.90;89.30
16032;DHT22;8120;48.308;8.914;2023-04-03T01:54:02;0.80;89.80
16032;DHT22;8120;48.308;8.914;2023-04-03T01:56:30;0.80;89.60
16032;DHT22;8120;48.308;8.914;2023-04-03T01:58:58;0.70;90.50
16032;DHT22;8120;48.308;8.914;2023-04-03T02:01:26;0.80;90.60
16032;DHT22;8120;48.308;8.914;2023-04-03T02:03:54;0.80;89.50
16032;DHT22;8120;48.308;8.914;2023-04-03T02:06:23;0.70;89.80
16032;DHT22;8120;48.308;8.914;2023-04-03T02:08:51;0.70;89.70
16032;DHT22;8120;48.308;8.914;2023-04-03T02:11:19;0.70;89.90
16032;DHT22;8120;48.308;8.914;2023-04-03T02:13:47;0.70;89.50
16032;DHT22;8120;48.308;8.914;2023-04-03T02:16:15;0.70;89.50
16032;DHT22;8120;48.308;8.914;2023-04-03T02:18:43;0.70;89.60
16032;DHT22;8120;48.308;8.914;2023-04-03T02:21:11;0.70;89.60
16032;DHT22;8120;48.308;8.914;2023-04-03T02:23:40;0.70;89.60
16032;DHT22;8120;48.308;8.914;2023-04-03T02:26:09;0.70;88.90
16032;DHT22;8120;48.308;8.914;2023-04-03T02:28:38;0.60;89.10
16032;DHT22;8120;48.308;8.914;2023-04-03T02:31:06;0.80;88.80
16032;DHT22;8120;48.308;8.914;2023-04-03T02:33:34;0.70;88.70
16032;DHT22;8120;48.308;8.914;2023-04-03T02:36:04;0.80;89.00
16032;DHT22;8120;48.308;8.914;2023-04-03T02:38:32;0.80;88.60
16032;DHT22;8120;48.308;8.914;2023-04-03T02:41:03;0.80;88.40
16032;DHT22;8120;48.308;8.914;2023-04-03T02:43:32;0.80;88.20
16032;DHT22;8120;48.308;8.914;2023-04-03T02:46:00;0.80;87.80
16032;DHT22;8120;48.308;8.914;2023-04-03T02:48:28;0.80;88.10
16032;DHT22;8120;48.308;8.914;2023-04-03T02:50:56;0.80;87.90
16032;DHT22;8120;48.308;8.914;2023-04-03T02:53:24;0.80;87.20
16032;DHT22;8120;48.308;8.914;2023-04-03T02:55:51;0.80;87.90
16032;DHT22;8120;48.308;8.914;2023-04-03T02:58:21;0.80;87.50
16032;DHT22;8120;48.308;8.914;2023-04-03T03:00:48;0.70;87.10
16032;DHT22;8120;48.308;8.914;2023-04-03T03:03:16;0.80;87.50
16032;DHT22;8120;48.308;8.914;2023-04-03T03:05:44;0.80;87.40
16032;DHT22;8120;48.308;8.914;2023-04-03T03:08:12;0.80;87.40
16032;DHT22;8120;48.308;8.914;2023-04-03T03:10:40;0.80;87.40
16032;DHT22;8120;48.308;8.914;2023-04-03T03:13:07;0.70;87.00
16032;DHT22;8120;48.308;8.914;2023-04-03T03:15:37;0.70;87.30
16032;DHT22;8120;48.308;8.914;2023-04-03T03:18:05;0.70;87.00
16032;DHT22;8120;48.308;8.914;2023-04-03T03:20:32;0.70;87.40
16032;DHT22;8120;48.308;8.914;2023-04-03T03:23:01;0.70;87.70
16032;DHT22;8120;48.308;8.914;2023-04-03T03:25:29;0.70;87.90
16032;DHT22;8120;48.308;8.914;2023-04-03T03:27:57;0.70;87.90
16032;DHT22;8120;48.308;8.914;2023-04-03T03:30:24;0.70;88.00
16032;DHT22;8120;48.308;8.914;2023-04-03T03:32:54;0.70;88.20
16032;DHT22;8120;48.308;8.914;2023-04-03T03:35:21;0.70;87.90
16032;DHT22;8120;48.308;8.914;2023-04-03T03:37:49;0.70;87.90
16032;DHT22;8120;48.308;8.914;2023-04-03T03:40:17;0.70;87.90
16032;DHT22;8120;48.308;8.914;2023-04-03T03:42:45;0.70;87.80
16032;DHT22;8120;48.308;8.914;2023-04-03T03:45:13;0.70;87.80
16032;DHT22;8120;48.308;8.914;2023-04-03T03:47:41;0.70;87.60
16032;DHT22;8120;48.308;8.914;2023-04-03T03:50:10;0.70;87.90
16032;DHT22;8120;48.308;8.914;2023-04-03T03:52:38;0.60;87.80
16032;DHT22;8120;48.308;8.914;2023-04-03T03:55:07;0.60;87.90
16032;DHT22;8120;48.308;8.914;2023-04-03T03:57:35;0.60;88.10
16032;DHT22;8120;48.308;8.914;2023-04-03T04:00:04;0.60;87.90
16032;DHT22;8120;48.308;8.914;2023-04-03T04:02:33;0.60;87.90
16032;DHT22;8120;48.308;8.914;2023-04-03T04:05:02;0.70;87.70
16032;DHT22;8120;48.308;8.914;2023-04-03T04:07:31;0.60;87.80
16032;DHT22;8120;48.308;8.914;2023-04-03T04:09:59;0.60;87.70
16032;DHT22;8120;48.308;8.914;2023-04-03T04:12:27;0.60;87.90
16032;DHT22;8120;48.308;8.914;2023-04-03T04:14:54;0.50;88.10
16032;DHT22;8120;48.308;8.914;2023-04-03T04:17:22;0.50;88.10
16032;DHT22;8120;48.308;8.914;2023-04-03T04:19:50;0.50;87.90
16032;DHT22;8120;48.308;8.914;2023-04-03T04:22:18;0.50;87.90
16032;DHT22;8120;48.308;8.914;2023-04-03T04:24:47;0.50;87.90
16032;DHT22;8120;48.308;8.914;2023-04-03T04:27:15;0.50;87.90
16032;DHT22;8120;48.308;8.914;2023-04-03T04:29:43;0.60;87.90
16032;DHT22;8120;48.308;8.914;2023-04-03T04:32:11;0.50;87.90
16032;DHT22;8120;48.308;8.914;2023-04-03T04:34:39;0.50;87.90
16032;DHT22;8120;48.308;8.914;2023-04-03T04:37:07;0.60;87.60
16032;DHT22;8120;48.308;8.914;2023-04-03T04:39:34;0.60;87.50
16032;DHT22;8120;48.308;8.914;2023-04-03T04:42:04;0.50;87.80
16032;DHT22;8120;48.308;8.914;2023-04-03T04:44:33;0.50;87.50
16032;DHT22;8120;48.308;8.914;2023-04-03T04:47:01;0.50;87.40
16032;DHT22;8120;48.308;8.914;2023-04-03T04:49:29;0.50;87.70
16032;DHT22;8120;48.308;8.914;2023-04-03T04:51:57;0.50;88.40
16032;DHT22;8120;48.308;8.914;2023-04-03T04:54:24;0.60;88.30
16032;DHT22;8120;48.308;8.914;2023-04-03T04:56:52;0.60;87.50
16032;DHT22;8120;48.308;8.914;2023-04-03T04:59:21;0.50;87.60
16032;DHT22;8120;48.308;8.914;2023-04-03T05:01:49;0.50;87.60
16032;DHT22;8120;48.308;8.914;2023-04-03T05:04:17;0.50;87.40
16032;DHT22;8120;48.308;8.914;2023-04-03T05:06:45;0.50;87.30
16032;DHT22;8120;48.308;8.914;2023-04-03T05:09:13;0.50;86.20
16032;DHT22;8120;48.308;8.914;2023-04-03T05:11:41;0.60;78.30
16032;DHT22;8120;48.308;8.914;2023-04-03T05:14:09;0.70;78.20
16032;DHT22;8120;48.308;8.914;2023-04-03T05:16:38;0.80;80.10
16032;DHT22;8120;48.308;8.914;2023-04-03T05:19:06;0.70;82.20
16032;DHT22;8120;48.308;8.914;2023-04-03T05:21:34;0.70;83.60
16032;DHT22;8120;48.308;8.914;2023-04-03T05:24:02;0.70;82.70
16032;DHT22;8120;48.308;8.914;2023-04-03T05:26:30;0.70;74.80
16032;DHT22;8120;48.308;8.914;2023-04-03T05:28:58;0.80;71.30
16032;DHT22;8120;48.308;8.914;2023-04-03T05:31:26;0.80;70.90
16032;DHT22;8120;48.308;8.914;2023-04-03T05:33:58;0.80;69.50
16032;DHT22;8120;48.308;8.914;2023-04-03T05:36:26;0.80;68.30
16032;DHT22;8120;48.308;8.914;2023-04-03T05:38:54;0.80;68.50
16032;DHT22;8120;48.308;8.914;2023-04-03T05:41:23;0.90;69.40
16032;DHT22;8120;48.308;8.914;2023-04-03T05:43:51;0.80;69.30
16032;DHT22;8120;48.308;8.914;2023-04-03T05:46:19;0.90;70.10
16032;DHT22;8120;48.308;8.914;2023-04-03T05:48:48;0.90;69.20
16032;DHT22;8120;48.308;8.914;2023-04-03T05:51:20;1.00;69.60
16032;DHT22;8120;48.308;8.914;2023-04-03T05:53:53;0.90;67.30
16032;DHT22;8120;48.308;8.914;2023-04-03T05:56:22;0.90;67.60
16032;DHT22;8120;48.308;8.914;2023-04-03T05:58:50;0.80;67.60
16032;DHT22;8120;48.308;8.914;2023-04-03T06:01:18;0.80;66.80
16032;DHT22;8120;48.308;8.914;2023-04-03T06:03:46;0.80;67.80
16032;DHT22;8120;48.308;8.914;2023-04-03T06:06:14;0.90;67.90
16032;DHT22;8120;48.308;8.914;2023-04-03T06:08:43;0.80;66.60
16032;DHT22;8120;48.308;8.914;2023-04-03T06:11:12;0.80;66.60
16032;DHT22;8120;48.308;8.914;2023-04-03T06:13:40;0.90;66.70
16032;DHT22;8120;48.308;8.914;2023-04-03T06:16:08;0.90;66.50
16032;DHT22;8120;48.308;8.914;2023-04-03T06:18:37;0.80;66.30
16032;DHT22;8120;48.308;8.914;2023-04-03T06:21:05;0.90;66.80
16032;DHT22;8120;48.308;8.914;2023-04-03T06:23:34;0.90;66.00
16032;DHT22;8120;48.308;8.914;2023-04-03T06:26:03;0.90;66.20
16032;DHT22;8120;48.308;8.914;2023-04-03T06:28:32;1.00;65.50
16032;DHT22;8120;48.308;8.914;2023-04-03T06:31:00;0.90;64.30
16032;DHT22;8120;48.308;8.914;2023-04-03T06:33:28;0.90;63.90
16032;DHT22;8120;48.308;8.914;2023-04-03T06:35:57;0.90;64.90
16032;DHT22;8120;48.308;8.914;2023-04-03T06:38:25;0.90;65.10
16032;DHT22;8120;48.308;8.914;2023-04-03T06:40:53;1.00;64.70
16032;DHT22;8120;48.308;8.914;2023-04-03T06:43:23;1.00;63.30
16032;DHT22;8120;48.308;8.914;2023-04-03T06:45:52;1.00;63.00
16032;DHT22;8120;48.308;8.914;2023-04-03T06:48:20;0.90;62.60
16032;DHT22;8120;48.308;8.914;2023-04-03T06:50:47;1.00;62.30
16032;DHT22;8120;48.308;8.914;2023-04-03T06:53:15;1.10;63.00
16032;DHT22;8120;48.308;8.914;2023-04-03T06:55:43;1.20;62.20
16032;DHT22;8120;48.308;8.914;2023-04-03T06:58:11;1.40;62.10
16032;DHT22;8120;48.308;8.914;2023-04-03T07:00:40;1.50;60.20
16032;DHT22;8120;48.308;8.914;2023-04-03T07:03:08;1.60;60.70
16032;DHT22;8120;48.308;8.914;2023-04-03T07:05:36;1.60;60.50
16032;DHT22;8120;48.308;8.914;2023-04-03T07:08:04;1.70;61.50
16032;DHT22;8120;48.308;8.914;2023-04-03T07:10:32;1.90;61.80
16032;DHT22;8120;48.308;8.914;2023-04-03T07:13:00;2.00;60.90
16032;DHT22;8120;48.308;8.914;2023-04-03T07:15:28;2.00;59.10
16032;DHT22;8120;48.308;8.914;2023-04-03T07:17:58;2.10;60.10
16032;DHT22;8120;48.308;8.914;2023-04-03T07:20:26;2.10;59.20
16032;DHT22;8120;48.308;8.914;2023-04-03T07:22:54;2.10;59.20
16032;DHT22;8120;48.308;8.914;2023-04-03T07:25:22;2.20;59.60
16032;DHT22;8120;48.308;8.914;2023-04-03T07:27:50;2.20;58.90
16032;DHT22;8120;48.308;8.914;2023-04-03T07:30:17;2.40;59.00
16032;DHT22;8120;48.308;8.914;2023-04-03T07:32:45;2.60;58.20
16032;DHT22;8120;48.308;8.914;2023-04-03T07:35:15;2.50;58.60
16032;DHT22;8120;48.308;8.914;2023-04-03T07:37:43;2.50;57.80
16032;DHT22;8120;48.308;8.914;2023-04-03T07:40:11;2.60;57.70
16032;DHT22;8120;48.308;8.914;2023-04-03T07:42:39;2.80;58.20
16032;DHT22;8120;48.308;8.914;2023-04-03T07:45:08;2.80;56.90
16032;DHT22;8120;48.308;8.914;2023-04-03T07:47:35;2.70;57.20
16032;DHT22;8120;48.308;8.914;2023-04-03T07:50:04;2.60;58.50
16032;DHT22;8120;48.308;8.914;2023-04-03T07:52:33;2.40;58.00
16032;DHT22;8120;48.308;8.914;2023-04-03T07:55:01;2.30;63.40
16032;DHT22;8120;48.308;8.914;2023-04-03T07:57:29;2.20;65.90
16032;DHT22;8120;48.308;8.914;2023-04-03T07:59:57;2.10;65.20
16032;DHT22;8120;48.308;8.914;2023-04-03T08:02:25;2.00;66.60
16032;DHT22;8120;48.308;8.914;2023-04-03T08:04:53;2.10;64.40
16032;DHT22;8120;48.308;8.914;2023-04-03T08:07:21;2.00;65.70
16032;DHT22;8120;48.308;8.914;2023-04-03T08:09:51;2.10;65.60
16032;DHT22;8120;48.308;8.914;2023-04-03T08:12:18;2.20;65.70
16032;DHT22;8120;48.308;8.914;2023-04-03T08:14:46;2.20;65.50
16032;DHT22;8120;48.308;8.914;2023-04-03T08:17:14;2.30;66.10
16032;DHT22;8120;48.308;8.914;2023-04-03T08:19:42;2.30;65.80
16032;DHT22;8120;48.308;8.914;2023-04-03T08:22:10;2.40;65.60
16032;DHT22;8120;48.308;8.914;2023-04-03T08:24:38;2.50;65.90
16032;DHT22;8120;48.308;8.914;2023-04-03T08:27:23;2.50;65.60
16032;DHT22;8120;48.308;8.914;2023-04-03T08:29:51;2.60;64.00
16032;DHT22;8120;48.308;8.914;2023-04-03T08:32:19;2.50;64.40
16032;DHT22;8120;48.308;8.914;2023-04-03T08:34:46;2.40;64.60
16032;DHT22;8120;48.308;8.914;2023-04-03T08:37:14;2.40;64.80
16032;DHT22;8120;48.308;8.914;2023-04-03T08:39:43;2.40;65.60
16032;DHT22;8120;48.308;8.914;2023-04-03T08:42:16;2.50;65.40
16032;DHT22;8120;48.308;8.914;2023-04-03T08:44:52;2.60;64.60
16032;DHT22;8120;48.308;8.914;2023-04-03T08:47:25;2.60;65.20
16032;DHT22;8120;48.308;8.914;2023-04-03T08:49:57;2.80;64.40
16032;DHT22;8120;48.308;8.914;2023-04-03T08:52:33;2.80;63.60
16032;DHT22;8120;48.308;8.914;2023-04-03T08:55:04;2.70;64.70
16032;DHT22;8120;48.308;8.914;2023-04-03T08:57:35;2.80;64.50
16032;DHT22;8120;48.308;8.914;2023-04-03T09:00:07;2.80;64.70
16032;DHT22;8120;48.308;8.914;2023-04-03T09:02:45;2.70;65.20
16032;DHT22;8120;48.308;8.914;2023-04-03T09:05:17;2.70;65.30
16032;DHT22;8120;48.308;8.914;2023-04-03T09:07:46;2.60;65.80
16032;DHT22;8120;48.308;8.914;2023-04-03T09:10:18;2.50;65.80
16032;DHT22;8120;48.308;8.914;2023-04-03T09:12:55;2.50;66.70
16032;DHT22;8120;48.308;8.914;2023-04-03T09:15:26;2.60;67.30
16032;DHT22;8120;48.308;8.914;2023-04-03T09:18:07;2.90;66.20
16032;DHT22;8120;48.308;8.914;2023-04-03T09:20:43;3.00;66.00
16032;DHT22;8120;48.308;8.914;2023-04-03T09:23:20;2.70;66.20
16032;DHT22;8120;48.308;8.914;2023-04-03T09:25:52;2.60;66.40
16032;DHT22;8120;48.308;8.914;2023-04-03T09:28:21;2.80;65.40
16032;DHT22;8120;48.308;8.914;2023-04-03T09:30:51;2.70;65.90
16032;DHT22;8120;48.308;8.914;2023-04-03T09:33:19;2.70;66.10
16032;DHT22;8120;48.308;8.914;2023-04-03T09:35:50;2.80;65.10
16032;DHT22;8120;48.308;8.914;2023-04-03T09:38:20;2.80;66.70
16032;DHT22;8120;48.308;8.914;2023-04-03T09:40:49;2.80;65.90
16032;DHT22;8120;48.308;8.914;2023-04-03T09:43:25;2.80;65.90
16032;DHT22;8120;48.308;8.914;2023-04-03T09:45:56;2.80;66.10
16032;DHT22;8120;48.308;8.914;2023-04-03T09:48:56;2.90;66.50
16032;DHT22;8120;48.308;8.914;2023-04-03T09:51:35;3.10;65.60
16032;DHT22;8120;48.308;8.914;2023-04-03T09:54:32;3.00;65.90
16032;DHT22;8120;48.308;8.914;2023-04-03T09:57:03;2.80;66.20
16032;DHT22;8120;48.308;8.914;2023-04-03T09:59:32;2.90;65.90
16032;DHT22;8120;48.308;8.914;2023-04-03T10:02:03;2.90;66.20
16032;DHT22;8120;48.308;8.914;2023-04-03T10:04:39;2.80;66.10
16032;DHT22;8120;48.308;8.914;2023-04-03T10:07:29;2.90;65.50
16032;DHT22;8120;48.308;8.914;2023-04-03T10:10:00;3.10;65.40
16032;DHT22;8120;48.308;8.914;2023-04-03T10:12:29;3.30;65.10
16032;DHT22;8120;48.308;8.914;2023-04-03T10:14:58;3.40;65.10
16032;DHT22;8120;48.308;8.914;2023-04-03T10:17:37;3.40;62.70
16032;DHT22;8120;48.308;8.914;2023-04-03T10:20:23;3.40;63.60
16032;DHT22;8120;48.308;8.914;2023-04-03T10:23:00;3.40;64.50
16032;DHT22;8120;48.308;8.914;2023-04-03T10:25:34;3.50;63.80
16032;DHT22;8120;48.308;8.914;2023-04-03T10:28:10;3.70;63.60
16032;DHT22;8120;48.308;8.914;2023-04-03T10:30:45;3.80;62.80
16032;DHT22;8120;48.308;8.914;2023-04-03T10:33:34;3.80;62.60
16032;DHT22;8120;48.308;8.914;2023-04-03T10:36:12;3.90;63.20
16032;DHT22;8120;48.308;8.914;2023-04-03T10:38:53;4.00;63.40
16032;DHT22;8120;48.308;8.914;2023-04-03T10:41:30;4.40;60.90
16032;DHT22;8120;48.308;8.914;2023-04-03T10:44:05;4.20;60.30
16032;DHT22;8120;48.308;8.914;2023-04-03T10:46:38;4.50;61.40
16032;DHT22;8120;48.308;8.914;2023-04-03T10:49:19;4.30;60.70
16032;DHT22;8120;48.308;8.914;2023-04-03T10:51:50;4.10;61.10
16032;DHT22;8120;48.308;8.914;2023-04-03T10:54:25;4.10;61.40
16032;DHT22;8120;48.308;8.914;2023-04-03T10:56:55;3.90;62.40
16032;DHT22;8120;48.308;8.914;2023-04-03T10:59:41;4.00;62.70
16032;DHT22;8120;48.308;8.914;2023-04-03T11:02:17;4.00;62.00
16032;DHT22;8120;48.308;8.914;2023-04-03T11:04:53;3.90;61.90
16032;DHT22;8120;48.308;8.914;2023-04-03T11:07:24;3.90;61.90
16032;DHT22;8120;48.308;8.914;2023-04-03T11:09:56;4.00;61.00
16032;DHT22;8120;48.308;8.914;2023-04-03T11:12:31;3.90;61.30
16032;DHT22;8120;48.308;8.914;2023-04-03T11:15:02;4.00;62.20
16032;DHT22;8120;48.308;8.914;2023-04-03T11:17:34;4.00;62.40
16032;DHT22;8120;48.308;8.914;2023-04-03T11:20:10;3.90;62.80
16032;DHT22;8120;48.308;8.914;2023-04-03T11:22:44;3.80;61.90
16032;DHT22;8120;48.308;8.914;2023-04-03T11:25:19;3.60;62.30
16032;DHT22;8120;48.308;8.914;2023-04-03T11:27:52;3.70;62.60
16032;DHT22;8120;48.308;8.914;2023-04-03T11:30:23;3.90;61.60
16032;DHT22;8120;48.308;8.914;2023-04-03T11:33:09;3.90;61.80
16032;DHT22;8120;48.308;8.914;2023-04-03T11:35:43;4.00;61.50
16032;DHT22;8120;48.308;8.914;2023-04-03T11:38:18;4.00;61.30
16032;DHT22;8120;48.308;8.914;2023-04-03T11:40:49;3.80;60.70
16032;DHT22;8120;48.308;8.914;2023-04-03T11:43:22;3.70;60.80
16032;DHT22;8120;48.308;8.914;2023-04-03T11:45:57;3.50;61.30
16032;DHT22;8120;48.308;8.914;2023-04-03T11:51:45;3.40;61.10
16032;DHT22;8120;48.308;8.914;2023-04-03T12:00:47;3.80;60.00
16032;DHT22;8120;48.308;8.914;2023-04-03T12:03:57;4.10;60.40
16032;DHT22;8120;48.308;8.914;2023-04-03T12:07:12;4.00;58.00
16032;DHT22;8120;48.308;8.914;2023-04-03T12:10:15;4.00;58.60
16032;DHT22;8120;48.308;8.914;2023-04-03T12:12:58;4.00;58.00
16032;DHT22;8120;48.308;8.914;2023-04-03T12:15:52;3.80;57.70
16032;DHT22;8120;48.308;8.914;2023-04-03T12:18:59;3.70;58.10
16032;DHT22;8120;48.308;8.914;2023-04-03T12:24:37;3.80;58.70
16032;DHT22;8120;48.308;8.914;2023-04-03T12:27:21;3.70;59.80
16032;DHT22;8120;48.308;8.914;2023-04-03T12:29:54;3.70;59.60
16032;DHT22;8120;48.308;8.914;2023-04-03T12:32:34;3.70;58.60
16032;DHT22;8120;48.308;8.914;2023-04-03T12:35:14;3.60;59.00
16032;DHT22;8120;48.308;8.914;2023-04-03T12:37:57;3.60;58.60
16032;DHT22;8120;48.308;8.914;2023-04-03T12:40:31;3.50;59.00
16032;DHT22;8120;48.308;8.914;2023-04-03T12:43:28;3.50;58.80
16032;DHT22;8120;48.308;8.914;2023-04-03T12:46:03;3.70;58.80
16032;DHT22;8120;48.308;8.914;2023-04-03T12:48:46;3.80;58.70
16032;DHT22;8120;48.308;8.914;2023-04-03T12:51:15;3.90;57.90
16032;DHT22;8120;48.308;8.914;2023-04-03T12:53:44;3.90;57.80
16032;DHT22;8120;48.308;8.914;2023-04-03T12:56:22;4.00;58.00
16032;DHT22;8120;48.308;8.914;2023-04-03T12:58:52;4.10;57.00
16032;DHT22;8120;48.308;8.914;2023-04-03T13:01:21;4.20;55.80
16032;DHT22;8120;48.308;8.914;2023-04-03T13:03:52;4.30;56.80
16032;DHT22;8120;48.308;8.914;2023-04-03T13:06:23;4.20;55.80
16032;DHT22;8120;48.308;8.914;2023-04-03T13:08:53;4.30;55.20
16032;DHT22;8120;48.308;8.914;2023-04-03T13:11:26;4.20;55.40
16032;DHT22;8120;48.308;8.914;2023-04-03T13:13:57;4.10;55.40
16032;DHT22;8120;48.308;8.914;2023-04-03T13:16:25;4.10;55.30
16032;DHT22;8120;48.308;8.914;2023-04-03T13:18:54;4.10;55.60
16032;DHT22;8120;48.308;8.914;2023-04-03T13:21:24;3.90;56.00
16032;DHT22;8120;48.308;8.914;2023-04-03T13:23:54;3.70;56.90
16032;DHT22;8120;48.308;8.914;2023-04-03T13:26:42;3.70;56.70
16032;DHT22;8120;48.308;8.914;2023-04-03T13:29:21;3.70;56.40
16032;DHT22;8120;48.308;8.914;2023-04-03T13:31:57;3.70;56.20
16032;DHT22;8120;48.308;8.914;2023-04-03T13:34:28;3.90;56.20
16032;DHT22;8120;48.308;8.914;2023-04-03T13:37:00;3.90;56.70
16032;DHT22;8120;48.308;8.914;2023-04-03T13:39:31;4.10;56.40
16032;DHT22;8120;48.308;8.914;2023-04-03T13:42:03;4.20;55.10
16032;DHT22;8120;48.308;8.914;2023-04-03T13:44:42;4.30;56.00
16032;DHT22;8120;48.308;8.914;2023-04-03T13:47:19;4.00;55.50
16032;DHT22;8120;48.308;8.914;2023-04-03T13:50:00;3.90;56.50
16032;DHT22;8120;48.308;8.914;2023-04-03T13:52:31;3.80;56.70
16032;DHT22;8120;48.308;8.914;2023-04-03T13:55:16;3.70;57.80
16032;DHT22;8120;48.308;8.914;2023-04-03T13:58:22;3.70;57.10
16032;DHT22;8120;48.308;8.914;2023-04-03T14:00:52;3.60;56.70
16032;DHT22;8120;48.308;8.914;2023-04-03T14:03:25;3.50;56.50
16032;DHT22;8120;48.308;8.914;2023-04-03T14:05:53;3.60;57.50
16032;DHT22;8120;48.308;8.914;2023-04-03T14:08:22;3.50;56.40
16032;DHT22;8120;48.308;8.914;2023-04-03T14:11:13;3.50;56.70
16032;DHT22;8120;48.308;8.914;2023-04-03T14:13:44;3.60;57.40
16032;DHT22;8120;48.308;8.914;2023-04-03T14:16:14;3.70;56.70
16032;DHT22;8120;48.308;8.914;2023-04-03T14:18:44;3.80;56.90
16032;DHT22;8120;48.308;8.914;2023-04-03T14:21:13;3.90;56.70
16032;DHT22;8120;48.308;8.914;2023-04-03T14:23:41;4.00;56.00
16032;DHT22;8120;48.308;8.914;2023-04-03T14:26:12;4.00;55.40
16032;DHT22;8120;48.308;8.914;2023-04-03T14:28:40;3.90;55.40
16032;DHT22;8120;48.308;8.914;2023-04-03T14:31:13;3.80;55.40
16032;DHT22;8120;48.308;8.914;2023-04-03T14:33:41;3.80;56.00
16032;DHT22;8120;48.308;8.914;2023-04-03T14:36:13;3.70;56.40
16032;DHT22;8120;48.308;8.914;2023-04-03T14:38:42;3.70;56.00
16032;DHT22;8120;48.308;8.914;2023-04-03T14:41:12;3.60;57.00
16032;DHT22;8120;48.308;8.914;2023-04-03T14:43:43;3.50;57.00
16032;DHT22;8120;48.308;8.914;2023-04-03T14:46:15;3.50;57.50
16032;DHT22;8120;48.308;8.914;2023-04-03T14:48:45;3.60;56.30
16032;DHT22;8120;48.308;8.914;2023-04-03T14:51:14;3.50;56.70
16032;DHT22;8120;48.308;8.914;2023-04-03T14:53:44;3.60;56.30
16032;DHT22;8120;48.308;8.914;2023-04-03T14:56:14;3.80;56.80
16032;DHT22;8120;48.308;8.914;2023-04-03T14:58:43;3.90;56.60
16032;DHT22;8120;48.308;8.914;2023-04-03T15:01:11;3.90;55.10
16032;DHT22;8120;48.308;8.914;2023-04-03T15:03:42;4.00;55.10
16032;DHT22;8120;48.308;8.914;2023-04-03T15:06:11;4.10;53.90
16032;DHT22;8120;48.308;8.914;2023-04-03T15:08:41;4.30;53.40
16032;DHT22;8120;48.308;8.914;2023-04-03T15:11:10;4.20;53.30
16032;DHT22;8120;48.308;8.914;2023-04-03T15:13:38;4.20;54.00
16032;DHT22;8120;48.308;8.914;2023-04-03T15:16:14;4.10;53.50
16032;DHT22;8120;48.308;8.914;2023-04-03T15:18:45;4.00;53.20
16032;DHT22;8120;48.308;8.914;2023-04-03T15:21:13;4.00;53.50
16032;DHT22;8120;48.308;8.914;2023-04-03T15:23:41;4.00;54.70
16032;DHT22;8120;48.308;8.914;2023-04-03T15:26:09;3.90;54.10
16032;DHT22;8120;48.308;8.914;2023-04-03T15:28:39;3.70;53.30
16032;DHT22;8120;48.308;8.914;2023-04-03T15:31:08;3.80;54.20
16032;DHT22;8120;48.308;8.914;2023-04-03T15:33:36;3.70;54.40
16032;DHT22;8120;48.308;8.914;2023-04-03T15:36:06;3.60;55.00
16032;DHT22;8120;48.308;8.914;2023-04-03T15:38:54;3.50;54.60
16032;DHT22;8120;48.308;8.914;2023-04-03T15:41:21;3.50;55.80
16032;DHT22;8120;48.308;8.914;2023-04-03T15:43:49;3.50;55.90
16032;DHT22;8120;48.308;8.914;2023-04-03T15:46:17;3.60;56.10
16032;DHT22;8120;48.308;8.914;2023-04-03T15:48:45;3.60;54.70
16032;DHT22;8120;48.308;8.914;2023-04-03T15:51:15;3.60;54.80
16032;DHT22;8120;48.308;8.914;2023-04-03T15:53:42;3.60;55.40
16032;DHT22;8120;48.308;8.914;2023-04-03T15:56:10;3.60;55.10
16032;DHT22;8120;48.308;8.914;2023-04-03T15:58:38;3.70;54.70
16032;DHT22;8120;48.308;8.914;2023-04-03T16:01:08;3.70;54.60
16032;DHT22;8120;48.308;8.914;2023-04-03T16:03:38;3.60;54.60
16032;DHT22;8120;48.308;8.914;2023-04-03T16:06:12;3.60;54.60
16032;DHT22;8120;48.308;8.914;2023-04-03T16:08:41;3.50;55.00
16032;DHT22;8120;48.308;8.914;2023-04-03T16:11:09;3.50;53.90
16032;DHT22;8120;48.308;8.914;2023-04-03T16:13:37;3.50;54.30
16032;DHT22;8120;48.308;8.914;2023-04-03T16:16:05;3.50;55.00
16032;DHT22;8120;48.308;8.914;2023-04-03T16:18:34;3.50;54.80
16032;DHT22;8120;48.308;8.914;2023-04-03T16:21:02;3.60;54.50
16032;DHT22;8120;48.308;8.914;2023-04-03T16:23:30;3.60;55.30
16032;DHT22;8120;48.308;8.914;2023-04-03T16:25:59;3.60;55.70
16032;DHT22;8120;48.308;8.914;2023-04-03T16:28:28;3.60;55.20
16032;DHT22;8120;48.308;8.914;2023-04-03T16:30:55;3.60;54.90
16032;DHT22;8120;48.308;8.914;2023-04-03T16:33:24;3.70;55.50
16032;DHT22;8120;48.308;8.914;2023-04-03T16:35:56;3.70;54.30
16032;DHT22;8120;48.308;8.914;2023-04-03T16:38:25;3.70;53.90
16032;DHT22;8120;48.308;8.914;2023-04-03T16:40:52;3.80;53.50
16032;DHT22;8120;48.308;8.914;2023-04-03T16:43:24;3.80;53.50